Sanhu Dao, China
Current Conditions -  °F | °C
As of 10:00 PM on Thursday 29 Jan 2015 (Local Time) from ZJSY Reporting Station
Broken Clouds Broken Clouds  
Wind Chill: 70°   Ceiling: 5000
Heat Index: 70°   Visibility: 6mi
Dew Point: 63°   Wind: 7mph
Humidity: 78%   Direction: 90°E
Pressure: 30.06"   Gusts: NA
Location:  16.53°N, 111.62°E
Report Text: ZJSY 291400Z 09003MPS 9999 FEW020 BKN050 21/17 Q1018 NOSIG
Loading
Personal Weather Stations






























Interactive Weather Map New forecast layout! Learn more

10-Day Weather Forecast

Advertisements
Track Severe Weather on mobile